createdAt,value
2023-02-23T00:00:14.160Z,8.22
2023-02-23T00:01:14.132Z,8.13
2023-02-23T00:02:13.886Z,8.17
2023-02-23T00:03:14.575Z,8.17
2023-02-23T00:04:14.151Z,8.17
2023-02-23T00:05:14.109Z,8.11
2023-02-23T00:06:14.079Z,8.17
2023-02-23T00:07:13.546Z,8.01
2023-02-23T00:08:14.034Z,8.13
2023-02-23T00:09:13.776Z,8.11
2023-02-23T00:10:13.997Z,8.11
2023-02-23T00:11:13.740Z,8.01
2023-02-23T00:12:13.773Z,8.19
2023-02-23T00:13:13.973Z,8.11
2023-02-23T00:14:13.961Z,8.13
2023-02-23T00:15:13.680Z,8.03
2023-02-23T00:16:13.746Z,8.17
2023-02-23T00:17:13.909Z,8.16
2023-02-23T00:18:13.632Z,8.1
2023-02-23T00:19:13.983Z,8.06
2023-02-23T00:20:13.972Z,8.13
2023-02-23T00:21:13.629Z,8.14
2023-02-23T00:22:13.587Z,8.14
2023-02-23T00:23:13.828Z,8.13
2023-02-23T00:24:13.811Z,8.14
2023-02-23T00:25:13.820Z,8.17
2023-02-23T00:26:13.641Z,8.1
2023-02-23T00:27:13.542Z,8.04
2023-02-23T00:28:13.753Z,8.07
2023-02-23T00:29:13.490Z,8.17
2023-02-23T00:30:13.725Z,8.13
2023-02-23T00:31:13.780Z,8.11
2023-02-23T00:32:14.225Z,8.09
2023-02-23T00:33:13.685Z,8.09
2023-02-23T00:34:13.157Z,8.13
2023-02-23T00:35:13.652Z,8.14
2023-02-23T00:36:13.708Z,8.17
2023-02-23T00:37:13.400Z,8.09
2023-02-23T00:38:13.362Z,8.13
2023-02-23T00:39:13.341Z,8.09
2023-02-23T00:40:13.607Z,8.07
2023-02-23T00:41:16.834Z,8.1
2023-02-23T00:42:13.299Z,8.14
2023-02-23T00:43:13.544Z,8.1
2023-02-23T00:44:13.533Z,8.1
2023-02-23T00:45:13.275Z,8.16
2023-02-23T00:46:13.418Z,8.1
2023-02-23T00:47:13.245Z,8.16
2023-02-23T00:48:13.229Z,8.14
2023-02-23T00:49:13.202Z,8.16
2023-02-23T00:50:13.208Z,8.1
2023-02-23T00:51:13.220Z,8.07
2023-02-23T00:52:13.209Z,8.16
2023-02-23T00:53:16.196Z,8.17
2023-02-23T00:54:12.876Z,8.16
2023-02-23T00:55:12.891Z,8.17
2023-02-23T00:56:13.106Z,8.11
2023-02-23T00:57:12.854Z,8.22
2023-02-23T00:58:13.077Z,8.04
2023-02-23T00:59:13.090Z,8.14
2023-02-23T01:00:13.407Z,8.19
2023-02-23T01:01:13.523Z,8.21
2023-02-23T01:02:13.500Z,8.17
2023-02-23T01:03:13.357Z,8.07
2023-02-23T01:04:12.844Z,8.19
2023-02-23T01:05:13.078Z,8.03
2023-02-23T01:06:13.051Z,8.19
2023-02-23T01:07:12.796Z,8.21
2023-02-23T01:08:13.404Z,8.19
2023-02-23T01:09:13.299Z,8.21
2023-02-23T01:10:13.258Z,8.13
2023-02-23T01:11:13.231Z,8.13
2023-02-23T01:12:13.219Z,8.14
2023-02-23T01:13:13.210Z,8.22
2023-02-23T01:14:13.226Z,8.16
2023-02-23T01:15:12.930Z,8.16
2023-02-23T01:16:12.660Z,8.17
2023-02-23T01:17:12.674Z,8.13
2023-02-23T01:18:13.139Z,8.16
2023-02-23T01:19:12.875Z,8.13
2023-02-23T01:20:12.593Z,8.11
2023-02-23T01:21:13.097Z,8.13
2023-02-23T01:22:13.122Z,8.13
2023-02-23T01:23:13.081Z,8.04
2023-02-23T01:24:13.135Z,8.07
2023-02-23T01:25:13.359Z,8.13
2023-02-23T01:26:13.054Z,8.1
2023-02-23T01:27:13.292Z,8.1
2023-02-23T01:28:13.279Z,8.11
2023-02-23T01:29:13.034Z,8.11
2023-02-23T01:30:13.007Z,8.13
2023-02-23T01:31:13.374Z,8.13
2023-02-23T01:32:13.312Z,8.09
2023-02-23T01:34:12.946Z,8.06
2023-02-23T01:35:13.217Z,8.1
2023-02-23T01:36:12.954Z,8.13
2023-02-23T01:37:12.900Z,8.14
2023-02-23T01:38:12.659Z,8.09
2023-02-23T01:39:12.904Z,8.06
2023-02-23T01:40:13.169Z,8.04
2023-02-23T01:41:13.136Z,8.09
2023-02-23T01:42:12.828Z,8.04
2023-02-23T01:43:13.073Z,8.11
2023-02-23T01:44:13.059Z,8.1
2023-02-23T01:45:12.789Z,8.07
2023-02-23T01:46:12.706Z,8.1
2023-02-23T01:47:13.134Z,8.1
2023-02-23T01:48:12.747Z,8.14
2023-02-23T01:49:12.737Z,8.1
2023-02-23T01:50:12.458Z,8.13
2023-02-23T01:51:12.711Z,8.1
2023-02-23T01:52:12.945Z,8.09
2023-02-23T01:53:12.942Z,8.09
2023-02-23T01:54:12.956Z,8.11
2023-02-23T01:55:12.940Z,8.17
2023-02-23T01:56:12.937Z,8.14
2023-02-23T01:57:12.892Z,8.14
2023-02-23T01:58:12.852Z,8.14
2023-02-23T01:59:12.849Z,8.14
2023-02-23T02:00:12.832Z,8.13
2023-02-23T02:01:13.013Z,8.17
2023-02-23T02:02:12.834Z,8.09
2023-02-23T02:03:12.523Z,8.07
2023-02-23T02:04:12.511Z,8.16
2023-02-23T02:05:12.904Z,8.11
2023-02-23T02:06:12.746Z,8.11
2023-02-23T02:07:12.742Z,8.14
2023-02-23T02:08:12.504Z,8.11
2023-02-23T02:09:12.471Z,8.17
2023-02-23T02:10:12.300Z,8.14
2023-02-23T02:11:12.670Z,8.07
2023-02-23T02:12:12.701Z,8.1
2023-02-23T02:13:12.673Z,8.06
2023-02-23T02:14:12.411Z,8.07
2023-02-23T02:15:12.665Z,8.11
2023-02-23T02:16:12.745Z,8.04
2023-02-23T02:17:12.124Z,7.99
2023-02-23T02:18:12.605Z,8.03
2023-02-23T02:19:12.339Z,8.07
2023-02-23T02:20:12.322Z,8.01
2023-02-23T02:21:12.307Z,8.01
2023-02-23T02:22:12.570Z,7.93
2023-02-23T02:23:12.549Z,7.99
2023-02-23T02:24:12.265Z,7.95
2023-02-23T02:25:12.438Z,7.86
2023-02-23T02:26:12.511Z,7.93
2023-02-23T02:27:12.229Z,7.96
2023-02-23T02:28:12.625Z,7.88
2023-02-23T02:29:13.241Z,7.85
2023-02-23T02:30:13.196Z,7.8
2023-02-23T02:31:13.066Z,7.8
2023-02-23T02:32:12.804Z,7.78
2023-02-23T02:33:13.156Z,7.77
2023-02-23T02:34:13.141Z,7.8
2023-02-23T02:35:12.856Z,7.82
2023-02-23T02:36:12.859Z,7.74
2023-02-23T02:37:12.832Z,7.77
2023-02-23T02:38:12.876Z,7.78
2023-02-23T02:39:12.827Z,7.71
2023-02-23T02:40:12.540Z,7.63
2023-02-23T02:41:12.776Z,7.63
2023-02-23T02:42:12.767Z,7.59
2023-02-23T02:43:12.758Z,7.61
2023-02-23T02:44:13.070Z,7.61
2023-02-23T02:45:12.994Z,7.63
2023-02-23T02:46:12.990Z,7.63
2023-02-23T02:47:12.460Z,7.52
2023-02-23T02:48:12.974Z,7.54
2023-02-23T02:49:12.670Z,7.61
2023-02-23T02:50:12.914Z,7.58
2023-02-23T02:51:12.889Z,7.49
2023-02-23T02:52:12.903Z,7.47
2023-02-23T02:53:13.303Z,7.49
2023-02-23T02:54:13.039Z,7.51
2023-02-23T02:55:13.050Z,7.56
2023-02-23T02:56:12.996Z,7.41
2023-02-23T02:57:13.245Z,7.56
2023-02-23T02:58:12.969Z,7.4
2023-02-23T02:59:12.958Z,7.55
2023-02-23T03:00:13.722Z,7.48
2023-02-23T03:01:13.756Z,7.44
2023-02-23T03:02:13.300Z,7.45
2023-02-23T03:03:13.269Z,7.41
2023-02-23T03:04:13.506Z,7.37
2023-02-23T03:05:13.442Z,7.37
2023-02-23T03:06:13.483Z,7.4
2023-02-23T03:07:13.478Z,7.33
2023-02-23T03:08:13.449Z,7.34
2023-02-23T03:09:13.433Z,7.34
2023-02-23T03:10:13.413Z,7.36
2023-02-23T03:11:13.144Z,7.39
2023-02-23T03:12:13.401Z,7.37
2023-02-23T03:13:13.412Z,7.39
2023-02-23T03:14:13.361Z,7.37
2023-02-23T03:15:13.361Z,7.37
2023-02-23T03:16:13.825Z,7.36
2023-02-23T03:17:13.351Z,7.39
2023-02-23T03:18:13.103Z,7.37
2023-02-23T03:19:13.296Z,7.31
2023-02-23T03:20:13.299Z,7.31
2023-02-23T03:21:12.752Z,7.34
2023-02-23T03:22:13.250Z,7.41
2023-02-23T03:23:12.724Z,7.29
2023-02-23T03:24:12.952Z,7.37
2023-02-23T03:25:12.690Z,7.34
2023-02-23T03:26:12.927Z,7.34
2023-02-23T03:27:13.170Z,7.34
2023-02-23T03:28:12.668Z,7.27
2023-02-23T03:29:13.141Z,7.21
2023-02-23T03:30:13.165Z,7.26
2023-02-23T03:31:13.234Z,7.22
2023-02-23T03:32:13.587Z,7.27
2023-02-23T03:49:26.193Z,6.94
2023-02-23T03:50:26.139Z,6.95
2023-02-23T03:51:25.869Z,6.85
2023-02-23T03:52:26.093Z,6.8
2023-02-23T03:53:26.063Z,6.76
2023-02-23T03:54:25.791Z,6.76
2023-02-23T03:55:26.097Z,6.79
2023-02-23T03:56:25.754Z,6.72
2023-02-23T03:57:25.978Z,6.73
2023-02-23T03:58:25.700Z,6.72
2023-02-23T03:59:25.951Z,6.68
2023-02-23T04:00:25.695Z,6.72
2023-02-23T04:01:25.675Z,6.67
2023-02-23T04:02:25.908Z,6.62
2023-02-23T04:03:26.035Z,6.65
2023-02-23T04:04:25.885Z,6.64
2023-02-23T04:05:25.932Z,6.61
2023-02-23T04:06:25.900Z,6.58
2023-02-23T04:07:25.838Z,6.67
2023-02-23T04:08:25.557Z,6.67
2023-02-23T04:09:25.288Z,6.67
2023-02-23T04:10:25.531Z,6.61
2023-02-23T04:11:25.943Z,6.72
2023-02-23T04:12:25.495Z,6.65
2023-02-23T04:13:25.475Z,6.72
2023-02-23T04:14:25.715Z,6.82
2023-02-23T04:15:25.717Z,6.8
2023-02-23T04:16:25.580Z,6.75
2023-02-23T04:17:25.156Z,6.91
2023-02-23T04:18:25.671Z,6.82
2023-02-23T04:19:25.648Z,6.88
2023-02-23T04:20:25.126Z,6.82
2023-02-23T04:21:26.213Z,6.9
2023-02-23T04:22:25.349Z,6.88
2023-02-23T04:23:25.576Z,6.86
2023-02-23T04:24:25.584Z,6.97
2023-02-23T04:25:25.306Z,7
2023-02-23T04:26:25.278Z,6.95
2023-02-23T04:27:25.265Z,6.98
2023-02-23T04:28:25.507Z,7.03
2023-02-23T04:29:25.479Z,7.05
2023-02-23T04:30:25.759Z,7.01
2023-02-23T04:31:29.795Z,7.03
2023-02-23T04:32:25.729Z,7.05
2023-02-23T04:33:25.247Z,7.05
2023-02-23T04:34:25.416Z,7.01
2023-02-23T04:35:25.161Z,7.03
2023-02-23T04:36:25.392Z,7
2023-02-23T04:37:25.489Z,7.05
2023-02-23T04:38:24.846Z,7
2023-02-23T04:39:25.393Z,7.03
2023-02-23T04:40:27.124Z,7.03
2023-02-23T04:41:25.690Z,7.12
2023-02-23T04:42:25.287Z,6.98
2023-02-23T04:43:25.279Z,7.08
2023-02-23T04:44:25.273Z,6.94
2023-02-23T04:45:25.240Z,7.05
2023-02-23T04:46:25.022Z,7.01
2023-02-23T04:47:25.227Z,7.04
2023-02-23T04:48:24.948Z,7.03
2023-02-23T04:49:24.940Z,7.01
2023-02-23T04:50:25.176Z,6.97
2023-02-23T04:51:25.157Z,6.91
2023-02-23T04:52:24.640Z,6.93
2023-02-23T04:53:25.211Z,6.93
2023-02-23T04:54:25.110Z,6.93
2023-02-23T04:55:25.086Z,6.91
2023-02-23T04:56:24.829Z,6.9
2023-02-23T04:57:25.083Z,6.91
2023-02-23T04:58:24.550Z,6.86
2023-02-23T04:59:25.025Z,6.94
2023-02-23T05:00:25.039Z,6.8
2023-02-23T05:01:25.563Z,6.83
2023-02-23T05:02:24.734Z,6.88
2023-02-23T05:03:24.751Z,6.82
2023-02-23T05:04:24.450Z,6.86
2023-02-23T05:05:25.000Z,6.8
2023-02-23T05:06:24.923Z,6.78
2023-02-23T05:07:24.658Z,6.82
2023-02-23T05:08:24.894Z,6.83
2023-02-23T05:09:24.952Z,6.83
2023-02-23T05:10:24.363Z,6.83
2023-02-23T05:11:25.260Z,6.76
2023-02-23T05:12:24.345Z,6.83
2023-02-23T05:13:24.825Z,6.79
2023-02-23T05:14:24.543Z,6.76
2023-02-23T05:15:24.536Z,6.85
2023-02-23T05:16:24.536Z,6.79
2023-02-23T05:17:24.505Z,6.75
2023-02-23T05:18:24.506Z,6.86
2023-02-23T05:19:24.853Z,6.8
2023-02-23T05:20:24.725Z,6.93
2023-02-23T05:21:24.794Z,6.9
2023-02-23T05:22:24.212Z,6.97
2023-02-23T05:23:24.668Z,7.01
2023-02-23T05:24:24.155Z,7.05
2023-02-23T05:25:24.752Z,7.01
2023-02-23T05:26:24.658Z,7.04
2023-02-23T05:27:24.608Z,7.09
2023-02-23T05:28:24.350Z,7.08
2023-02-23T05:29:24.594Z,7.12
2023-02-23T05:30:24.610Z,7.13
2023-02-23T05:31:25.371Z,7.16
2023-02-23T05:32:24.444Z,7.16
2023-02-23T05:33:24.529Z,7.29
2023-02-23T05:34:24.277Z,7.16
2023-02-23T05:35:24.501Z,7.22
2023-02-23T05:36:24.248Z,7.19
2023-02-23T05:37:24.212Z,7.21
2023-02-23T05:38:24.611Z,7.15
2023-02-23T05:39:24.432Z,7.22
2023-02-23T05:40:24.409Z,7.16
2023-02-23T05:41:25.285Z,7.16
2023-02-23T05:42:24.454Z,7.19
2023-02-23T05:43:24.385Z,7.19
2023-02-23T05:44:24.364Z,7.16
2023-02-23T05:45:24.336Z,7.13
2023-02-23T05:46:24.642Z,7.16
2023-02-23T05:47:24.316Z,7.16
2023-02-23T05:48:24.057Z,7.16
2023-02-23T05:49:23.784Z,7.16
2023-02-23T05:50:23.760Z,7.13
2023-02-23T05:51:24.668Z,7.19
2023-02-23T05:52:24.013Z,7.15
2023-02-23T05:53:23.974Z,7.18
2023-02-23T05:54:24.208Z,7.19
2023-02-23T05:55:23.935Z,7.23
2023-02-23T05:56:24.209Z,7.13
2023-02-23T05:57:24.247Z,7.15
2023-02-23T05:58:24.151Z,7.19
2023-02-23T05:59:23.874Z,7.19
2023-02-23T06:00:24.129Z,7.18
2023-02-23T06:01:24.605Z,7.23
2023-02-23T06:02:24.297Z,7.18
2023-02-23T06:03:24.239Z,7.22
2023-02-23T06:04:23.585Z,7.18
2023-02-23T06:05:24.057Z,7.15
2023-02-23T06:06:24.052Z,7.19
2023-02-23T06:07:23.763Z,7.23
2023-02-23T06:08:23.766Z,7.22
2023-02-23T06:09:24.001Z,7.23
2023-02-23T06:10:23.737Z,7.26
2023-02-23T06:11:24.398Z,7.27
2023-02-23T06:12:23.944Z,7.22
2023-02-23T06:13:24.128Z,7.27
2023-02-23T06:14:23.730Z,7.23
2023-02-23T06:15:23.807Z,7.19
2023-02-23T06:16:24.343Z,7.26
2023-02-23T06:17:23.624Z,7.23
2023-02-23T06:18:23.927Z,7.27
2023-02-23T06:19:23.603Z,7.36
2023-02-23T06:20:23.588Z,7.34
2023-02-23T06:21:24.223Z,7.37
2023-02-23T06:22:23.543Z,7.4
2023-02-23T06:23:23.794Z,7.47
2023-02-23T06:24:23.534Z,7.4
2023-02-23T06:25:23.492Z,7.39
2023-02-23T06:26:23.744Z,7.36
2023-02-23T06:27:23.475Z,7.27
2023-02-23T06:28:23.708Z,7.37
2023-02-23T06:29:23.957Z,7.39
2023-02-23T06:30:23.566Z,7.37
2023-02-23T06:31:24.514Z,7.39
2023-02-23T06:32:23.902Z,7.48
2023-02-23T06:33:23.656Z,7.4
2023-02-23T06:34:23.398Z,7.49
2023-02-23T06:35:23.370Z,7.54
2023-02-23T06:36:23.626Z,7.39
2023-02-23T06:37:23.071Z,7.37
2023-02-23T06:38:23.314Z,7.41
2023-02-23T06:39:23.315Z,7.41
2023-02-23T06:40:23.551Z,7.48
2023-02-23T06:41:23.963Z,7.51
2023-02-23T06:42:23.505Z,7.45
2023-02-23T06:43:25.616Z,7.51
2023-02-23T06:44:23.237Z,7.49
2023-02-23T06:45:23.931Z,7.68
2023-02-23T06:46:23.411Z,7.58
2023-02-23T06:47:23.449Z,7.59
2023-02-23T06:48:23.191Z,7.71
2023-02-23T06:49:23.145Z,7.63
2023-02-23T06:50:22.886Z,7.73
2023-02-23T06:51:23.959Z,7.73
2023-02-23T06:52:23.110Z,7.82
2023-02-23T06:53:23.096Z,7.78
2023-02-23T06:54:23.083Z,7.78
2023-02-23T06:55:23.063Z,7.86
2023-02-23T06:56:23.051Z,7.92
2023-02-23T06:57:23.287Z,7.91
2023-02-23T06:58:23.095Z,7.95
2023-02-23T06:59:23.274Z,7.95
2023-02-23T07:00:23.261Z,8.01
2023-02-23T07:01:24.201Z,8.06
2023-02-23T07:02:23.241Z,8.17
2023-02-23T07:03:23.005Z,8.11
2023-02-23T07:04:23.316Z,8.09
2023-02-23T07:05:23.234Z,8.21
2023-02-23T07:06:22.916Z,8.34
2023-02-23T07:07:23.175Z,8.19
2023-02-23T07:08:23.141Z,8.22
2023-02-23T07:09:23.131Z,8.25
2023-02-23T07:10:22.614Z,8.34
2023-02-23T07:11:23.692Z,8.34
2023-02-23T07:12:22.871Z,8.34
2023-02-23T07:13:22.834Z,8.31
2023-02-23T07:14:31.512Z,8.4
2023-02-23T07:15:22.527Z,8.4
2023-02-23T07:16:23.214Z,8.46
2023-02-23T07:17:23.211Z,8.43
2023-02-23T07:18:23.036Z,8.47
2023-02-23T07:19:23.223Z,8.53
2023-02-23T07:20:23.000Z,8.49
2023-02-23T07:21:23.556Z,8.6
2023-02-23T07:22:22.689Z,8.54
2023-02-23T07:23:22.958Z,8.6
2023-02-23T07:24:22.678Z,8.67
2023-02-23T07:25:22.732Z,8.65
2023-02-23T07:26:22.888Z,8.64
2023-02-23T07:27:22.625Z,8.71
2023-02-23T07:28:23.138Z,8.72
2023-02-23T07:29:23.116Z,8.79
2023-02-23T07:30:23.106Z,8.76
2023-02-23T07:31:24.227Z,8.86
2023-02-23T07:32:23.521Z,8.86
2023-02-23T07:33:23.195Z,8.8
2023-02-23T07:34:22.799Z,8.98
2023-02-23T07:35:23.061Z,9.03
2023-02-23T07:36:23.027Z,9.01
2023-02-23T07:37:22.756Z,9.03
2023-02-23T07:38:22.752Z,8.95
2023-02-23T07:39:23.016Z,9.01
2023-02-23T07:40:22.993Z,8.98
2023-02-23T07:41:23.694Z,9.01
2023-02-23T07:42:22.954Z,9.14
2023-02-23T07:43:22.711Z,9.04
2023-02-23T07:44:22.935Z,9.16
2023-02-23T07:45:22.913Z,9.17
2023-02-23T07:46:22.743Z,9.21
2023-02-23T07:47:22.885Z,9.23
2023-02-23T07:48:22.873Z,9.27
2023-02-23T07:49:22.971Z,9.39
2023-02-23T07:50:22.602Z,9.44
2023-02-23T07:51:23.742Z,9.5
2023-02-23T07:52:22.820Z,9.5
2023-02-23T07:53:22.807Z,9.48
2023-02-23T07:54:22.292Z,9.63
2023-02-23T07:55:22.795Z,9.64
2023-02-23T07:56:22.539Z,9.7
2023-02-23T07:57:27.248Z,9.75
2023-02-23T07:58:22.749Z,9.84
2023-02-23T07:59:22.248Z,9.92
2023-02-23T08:00:22.735Z,9.9
2023-02-23T08:01:23.522Z,9.88
2023-02-23T08:02:22.719Z,9.9
2023-02-23T08:03:22.705Z,10.08
2023-02-23T08:04:22.829Z,10.1
2023-02-23T08:05:24.382Z,10.17
2023-02-23T08:06:22.641Z,10.18
2023-02-23T08:07:22.639Z,10.25
2023-02-23T08:08:22.373Z,10.32
2023-02-23T08:09:22.613Z,10.32
2023-02-23T08:10:22.634Z,10.31
2023-02-23T08:11:22.940Z,10.42
2023-02-23T08:12:22.569Z,10.42
2023-02-23T08:13:22.560Z,10.47
2023-02-23T08:14:22.554Z,10.47
2023-02-23T08:15:22.540Z,10.46
2023-02-23T08:16:22.781Z,10.52
2023-02-23T08:17:22.537Z,10.49
2023-02-23T08:18:22.735Z,10.54
2023-02-23T08:19:22.260Z,10.54
2023-02-23T08:20:22.510Z,10.57
2023-02-23T08:21:23.200Z,10.58
2023-02-23T08:22:22.452Z,10.7
2023-02-23T08:23:22.440Z,10.65
2023-02-23T08:24:22.188Z,10.69
2023-02-23T08:25:22.481Z,10.7
2023-02-23T08:26:22.413Z,10.72
2023-02-23T08:27:22.401Z,10.69
2023-02-23T08:28:22.383Z,10.84
2023-02-23T08:29:22.380Z,10.84
2023-02-23T08:30:22.101Z,10.84
2023-02-23T08:31:24.800Z,10.87
2023-02-23T08:32:22.681Z,10.84
2023-02-23T08:33:22.314Z,10.91
2023-02-23T08:34:22.059Z,10.79
2023-02-23T08:35:22.298Z,10.87
2023-02-23T08:36:22.286Z,10.94
2023-02-23T08:37:22.773Z,10.87
2023-02-23T08:38:22.271Z,10.92
2023-02-23T08:39:22.252Z,10.98
2023-02-23T08:40:21.978Z,11.05
2023-02-23T08:41:22.940Z,11.13
2023-02-23T08:42:21.963Z,11.16
2023-02-23T08:43:22.234Z,11.1
2023-02-23T08:44:21.971Z,11.24
2023-02-23T08:45:22.178Z,11.27
2023-02-23T08:46:22.416Z,11.27
2023-02-23T08:47:21.939Z,11.2
2023-02-23T08:48:21.889Z,11.23
2023-02-23T08:49:22.132Z,11.23
2023-02-23T08:50:21.865Z,11.23
2023-02-23T08:51:22.675Z,11.12
2023-02-23T08:52:22.098Z,11.21
2023-02-23T08:53:22.227Z,11.13
2023-02-23T08:54:21.820Z,11.13
2023-02-23T08:55:22.074Z,11.26
2023-02-23T08:56:22.058Z,11.2
2023-02-23T08:57:22.134Z,11.23
2023-02-23T08:58:21.779Z,11.21
2023-02-23T08:59:21.761Z,11.12
2023-02-23T09:00:22.006Z,11.13
2023-02-23T09:01:23.126Z,11.18
2023-02-23T09:02:21.721Z,11.1
2023-02-23T09:03:21.707Z,11.18
2023-02-23T09:04:21.749Z,11.18
2023-02-23T09:05:22.234Z,11.12
2023-02-23T09:06:22.000Z,11.1
2023-02-23T09:07:21.921Z,11.13
2023-02-23T09:08:21.914Z,11.12
2023-02-23T09:09:21.985Z,11.21
2023-02-23T09:10:21.887Z,11.09
2023-02-23T09:11:22.508Z,11.1
2023-02-23T09:12:21.884Z,11.03
2023-02-23T09:13:21.626Z,11
2023-02-23T09:14:21.866Z,11
2023-02-23T09:15:21.903Z,10.97
2023-02-23T09:16:22.012Z,11.02
2023-02-23T09:17:22.725Z,10.98
2023-02-23T09:18:21.794Z,11.03
2023-02-23T09:19:21.539Z,11.02
2023-02-23T09:20:21.807Z,10.97
2023-02-23T09:21:22.545Z,11
2023-02-23T09:22:21.761Z,11.06
2023-02-23T09:23:21.752Z,11.09
2023-02-23T09:24:21.473Z,11.1
2023-02-23T09:25:21.865Z,11.15
2023-02-23T09:26:22.743Z,10.98
2023-02-23T09:27:21.733Z,11.08
2023-02-23T09:28:21.453Z,11.02
2023-02-23T09:29:21.170Z,11.1
2023-02-23T09:30:21.426Z,10.98
2023-02-23T09:31:22.983Z,11.1
2023-02-23T09:32:22.035Z,11.05
2023-02-23T09:33:21.364Z,11.02
2023-02-23T09:34:21.370Z,11.03
2023-02-23T09:35:21.603Z,10.91
2023-02-23T09:36:21.609Z,10.92
2023-02-23T09:37:21.602Z,10.9
2023-02-23T09:38:21.311Z,10.94
2023-02-23T09:39:39.648Z,10.83
2023-02-23T09:40:21.041Z,10.79
2023-02-23T09:41:22.491Z,10.9
2023-02-23T09:42:21.030Z,10.95
2023-02-23T09:43:21.510Z,10.97
2023-02-23T09:44:21.522Z,10.95
2023-02-23T09:45:20.992Z,11.15
2023-02-23T09:46:21.582Z,11.09
2023-02-23T09:47:21.218Z,11.1
2023-02-23T09:48:21.548Z,11.3
2023-02-23T09:49:21.446Z,11.27
2023-02-23T09:50:20.939Z,11.28
2023-02-23T09:51:22.414Z,11.41
2023-02-23T09:52:22.399Z,11.41
2023-02-23T09:53:21.391Z,11.45
2023-02-23T09:54:21.388Z,11.27
2023-02-23T09:55:21.122Z,11.31
2023-02-23T09:56:21.103Z,11.23
2023-02-23T09:57:21.449Z,11.24
2023-02-23T09:58:20.837Z,11.26
2023-02-23T09:59:21.086Z,11.31
2023-02-23T10:00:20.814Z,11.27
2023-02-23T10:01:22.677Z,11.26
2023-02-23T10:02:21.292Z,11.2
2023-02-23T10:03:21.057Z,11.21
2023-02-23T10:04:21.280Z,11.24
2023-02-23T10:05:21.328Z,11.33
2023-02-23T10:06:21.058Z,11.26
2023-02-23T10:07:21.238Z,11.23
2023-02-23T10:08:21.241Z,11.34
2023-02-23T10:09:20.962Z,11.24
2023-02-23T10:10:21.272Z,11.27
2023-02-23T10:11:22.637Z,11.38
2023-02-23T10:12:21.825Z,11.35
2023-02-23T10:13:21.884Z,11.46
2023-02-23T10:14:21.826Z,11.63
2023-02-23T10:15:21.794Z,11.51
2023-02-23T10:16:21.970Z,11.53
2023-02-23T10:17:21.768Z,11.66
2023-02-23T10:18:21.496Z,11.64
2023-02-23T10:19:21.743Z,11.67
2023-02-23T10:20:21.741Z,11.78
2023-02-23T10:21:22.650Z,11.64
2023-02-23T10:22:21.721Z,11.66
2023-02-23T10:23:21.710Z,11.75
2023-02-23T10:24:21.699Z,11.75
2023-02-23T10:25:21.435Z,11.68
2023-02-23T10:26:21.709Z,11.78
2023-02-23T10:27:21.678Z,11.75
2023-02-23T10:28:21.387Z,11.68
2023-02-23T10:29:21.746Z,11.66
2023-02-23T10:30:21.390Z,11.82
2023-02-23T10:31:22.740Z,11.75
2023-02-23T10:32:21.760Z,11.76
2023-02-23T10:33:21.340Z,11.88
2023-02-23T10:34:23.138Z,11.94
2023-02-23T10:35:21.621Z,11.95
2023-02-23T10:36:21.550Z,12.08
2023-02-23T10:37:21.286Z,12.11
2023-02-23T10:38:21.014Z,12.2
2023-02-23T10:39:21.284Z,12.25
2023-02-23T10:40:20.993Z,12.31
2023-02-23T10:41:22.215Z,12.36
2023-02-23T10:42:21.231Z,12.41
2023-02-23T10:43:21.479Z,12.41
2023-02-23T10:44:22.221Z,12.41
2023-02-23T10:45:21.547Z,12.52
2023-02-23T10:46:21.666Z,12.55
2023-02-23T10:47:21.458Z,12.53
2023-02-23T10:48:21.697Z,12.53
2023-02-23T10:49:21.418Z,12.62
2023-02-23T10:50:21.211Z,12.69
2023-02-23T10:51:22.156Z,12.58
2023-02-23T10:52:20.924Z,12.7
2023-02-23T10:53:21.476Z,12.73
2023-02-23T10:54:21.373Z,12.71
2023-02-23T10:55:20.844Z,12.83
2023-02-23T10:56:21.355Z,12.86
2023-02-23T10:57:21.336Z,12.74
2023-02-23T10:58:21.390Z,12.73
2023-02-23T10:59:21.784Z,12.71
2023-02-23T11:00:21.965Z,12.69
2023-02-23T11:01:22.858Z,12.8
2023-02-23T11:02:21.876Z,12.73
2023-02-23T11:03:21.660Z,12.81
2023-02-23T11:04:21.708Z,12.88
2023-02-23T11:05:21.303Z,12.92
2023-02-23T11:06:21.273Z,12.95
2023-02-23T11:07:22.085Z,12.96
2023-02-23T11:08:20.972Z,12.89
2023-02-23T11:09:24.754Z,13.03
2023-02-23T11:10:20.789Z,13.02
2023-02-23T11:11:22.765Z,12.89
2023-02-23T11:12:21.185Z,12.94
2023-02-23T11:13:21.170Z,12.98
2023-02-23T11:14:20.681Z,12.95
2023-02-23T11:15:20.896Z,12.92
2023-02-23T11:16:21.025Z,12.98
2023-02-23T11:17:21.208Z,12.95
2023-02-23T11:18:21.122Z,13.09
2023-02-23T11:19:20.851Z,13.21
2023-02-23T11:20:20.919Z,13.27
2023-02-23T11:21:21.759Z,13.36
2023-02-23T11:22:21.108Z,13.32
2023-02-23T11:23:21.063Z,13.29
2023-02-23T11:24:21.056Z,13.28
2023-02-23T11:25:20.797Z,13.37
2023-02-23T11:26:20.839Z,13.29
2023-02-23T11:27:21.053Z,13.28
2023-02-23T11:28:20.853Z,13.17
2023-02-23T11:29:21.066Z,13.24
2023-02-23T11:30:20.742Z,13.31
2023-02-23T11:31:22.064Z,13.31
2023-02-23T11:32:21.452Z,13.45
2023-02-23T11:33:21.138Z,13.28
2023-02-23T11:34:21.572Z,13.44
2023-02-23T11:35:21.555Z,13.5
2023-02-23T11:36:21.319Z,13.44
2023-02-23T11:37:21.669Z,13.4
2023-02-23T11:38:21.532Z,13.37
2023-02-23T11:39:21.251Z,13.24
2023-02-23T11:40:21.298Z,13.19
2023-02-23T11:41:22.044Z,13.27
2023-02-23T11:42:21.234Z,13.25
2023-02-23T11:43:21.215Z,13.1
2023-02-23T11:44:21.615Z,13.1
2023-02-23T11:45:21.489Z,13.03
2023-02-23T11:46:22.341Z,12.96
2023-02-23T11:47:20.945Z,12.92
2023-02-23T11:48:21.417Z,12.89
2023-02-23T11:49:21.490Z,12.88
2023-02-23T11:50:20.879Z,12.89
2023-02-23T11:51:21.510Z,12.86
2023-02-23T11:52:21.376Z,12.81
2023-02-23T11:53:21.130Z,12.77
2023-02-23T11:54:21.384Z,12.7
2023-02-23T11:55:21.123Z,12.76
2023-02-23T11:56:22.194Z,12.78
2023-02-23T11:57:21.096Z,12.69
2023-02-23T11:58:21.342Z,12.65
2023-02-23T11:59:21.312Z,12.62
2023-02-23T12:00:21.067Z,12.59
2023-02-23T12:01:21.311Z,12.53
2023-02-23T12:02:21.302Z,12.41
2023-02-23T12:03:21.258Z,12.37
2023-02-23T12:04:20.752Z,12.23
2023-02-23T12:05:21.428Z,12.25
2023-02-23T12:06:22.251Z,12.28
2023-02-23T12:07:21.236Z,12.23
2023-02-23T12:08:21.290Z,12.38
2023-02-23T12:09:21.328Z,12.23
2023-02-23T12:10:21.632Z,12.2
2023-02-23T12:11:20.938Z,12.34
2023-02-23T12:12:21.186Z,12.33
2023-02-23T12:13:20.963Z,12.4
2023-02-23T12:14:21.177Z,12.45
2023-02-23T12:15:20.913Z,12.58
2023-02-23T12:16:21.788Z,12.61
2023-02-23T12:17:21.149Z,12.63
2023-02-23T12:18:21.142Z,12.61
2023-02-23T12:19:21.129Z,12.63
2023-02-23T12:20:21.171Z,12.66
2023-02-23T12:21:21.286Z,12.76
2023-02-23T12:22:21.105Z,12.8
2023-02-23T12:23:21.077Z,12.84
2023-02-23T12:24:20.810Z,12.91
2023-02-23T12:25:21.061Z,12.83
2023-02-23T12:26:21.865Z,12.8
2023-02-23T12:27:20.784Z,12.78
2023-02-23T12:28:23.765Z,12.73
2023-02-23T12:29:21.025Z,12.74
2023-02-23T12:30:21.056Z,12.74
2023-02-23T12:31:20.900Z,12.74
2023-02-23T12:32:21.315Z,12.76
2023-02-23T12:33:20.735Z,12.77
2023-02-23T12:34:20.705Z,12.89
2023-02-23T12:35:20.978Z,12.92
2023-02-23T12:36:21.747Z,12.91
2023-02-23T12:37:21.223Z,12.92
2023-02-23T12:38:20.921Z,12.94
2023-02-23T12:39:20.950Z,12.92
2023-02-23T12:40:20.941Z,12.92
2023-02-23T12:41:20.650Z,12.94
2023-02-23T12:42:20.894Z,12.95
2023-02-23T12:43:20.882Z,12.95
2023-02-23T12:44:20.926Z,13.03
2023-02-23T12:45:20.596Z,12.94
2023-02-23T12:46:21.271Z,12.95
2023-02-23T12:47:20.665Z,12.95
2023-02-23T12:48:20.967Z,12.96
2023-02-23T12:49:20.799Z,12.92
2023-02-23T12:50:20.830Z,12.95
2023-02-23T12:51:22.341Z,12.89
2023-02-23T12:52:20.524Z,12.89
2023-02-23T12:53:20.873Z,12.84
2023-02-23T12:54:20.765Z,12.76
2023-02-23T12:55:20.507Z,12.73
2023-02-23T12:56:21.378Z,12.76
2023-02-23T12:57:20.503Z,12.76
2023-02-23T12:58:20.717Z,12.76
2023-02-23T12:59:20.752Z,12.7
2023-02-23T13:00:20.701Z,12.65
2023-02-23T13:01:21.832Z,12.61
2023-02-23T13:02:20.809Z,12.61
2023-02-23T13:03:20.700Z,12.51
2023-02-23T13:04:20.659Z,12.48
2023-02-23T13:05:20.395Z,12.55
2023-02-23T13:06:20.383Z,12.48
2023-02-23T13:07:20.403Z,12.55
2023-02-23T13:08:20.370Z,12.55
2023-02-23T13:09:20.703Z,12.52
2023-02-23T13:10:20.131Z,12.52
2023-02-23T13:11:21.166Z,12.41
2023-02-23T13:12:20.767Z,12.4
2023-02-23T13:13:20.590Z,12.45
2023-02-23T13:14:20.558Z,12.37
2023-02-23T13:15:20.361Z,12.36
2023-02-23T13:16:20.494Z,12.33
2023-02-23T13:17:20.587Z,12.38
2023-02-23T13:18:20.292Z,12.29
2023-02-23T13:19:20.532Z,12.23
2023-02-23T13:20:20.510Z,12.23
2023-02-23T13:21:21.366Z,12.2
2023-02-23T13:22:20.225Z,12.18
2023-02-23T13:23:20.506Z,12.23
2023-02-23T13:24:20.466Z,12.34
2023-02-23T13:25:20.537Z,12.34
2023-02-23T13:26:20.461Z,12.43
2023-02-23T13:27:20.494Z,12.43